map of KCZ home
KCZ - Airport
Location
City:  Kochi, Kochi, Japan
Near (Alt.):Nankoku
Name:Kochi Airport
ICAO:RJOK
IATA:KCZ

Details
Type:Airport (Aerodrome, Airfield)
Latitude:3332'46"N (33.546111)
Longitude:13340'10"E (133.669444)
Datum:WGS 1984
Elevation:42 ft (13 m)
Variation:7.46W (WMM2015 magnetic declination)
-0.07 annual change
Runways:1
Longest:8203 × 148 ft (2500 × 45 m), paved

Time
Time Zone:UTC+9
Local Time:

Weather
METAR:RJOK 150900Z 36007KT 9999 FEW050 08/M02 Q1028
TAF:RJOK 150508Z 1506/1612 35010KT 9999 FEW030
TEMPO 1606/1612 4000 SHRA BR

Related Locations
Nearby:
Farthest:SSMT: 12124 mi / 19512 km
Mostardas, RS, BR

Find:

   beyond  
but within

Other Information
Maps:
NOTAMs:
Links:
Sources:

  
  • flag of Japan
  • flag of Kochi
  • flag of Kochi
  

Sectional Chart

Flight Planning
at skyvector.com

Satellite Image

Google Maps Satellite view

 

Copyright © 2004-2018 Karl L. Swartz. All rights reserved.
The Great Circle Mapper name and logo are trademarks of the Great Circle Mapper.
All other trademarks mentioned herein belong to their respective owners.
Please see credits for attibutions and further copyright information.

  Follow gcmap on Facebook Follow gcmap on Twitter Follow gcmap on Google+ GCmap on LinkedIn

hCard Microformat

Geo Microformat